Daugavpils, Latvia
Current Conditions -  °F | °C
As of 1:20 PM on Monday 26 Jan 2015 (Local Time) from EYVI Reporting Station
Freezing Drizzle Freezing Drizzle  
Wind Chill: 28°   Ceiling: 500
Heat Index: 28°   Visibility: 1.4mi
Dew Point: 28°   Wind: 3mph
Humidity: 100%   Direction: NA
Pressure: 30.09"   Gusts: NA
Location:  55.88°N, 26.51°E
Report Text: EYVI 261020Z VRB03KT 2300 -FZDZ BR OVC005 M02/M02 Q1019 R02/5/0295 NOSIG
Loading
Personal Weather Stations






























Interactive Weather Map New forecast layout! Learn more

10-Day Weather Forecast

Advertisements
Track Severe Weather on mobile